EBB weather

Entebbe International Airport
Kampala, Central Region, Uganda

Public forecast

Using degrees Celsius for public forecast. Weather courtesy of forecast.io.

Current aviation weather report (METAR) for Entebbe International Airport

Retrieved 2019/10/19 06:00 UTC (30 minutes ago):

HUEN 190600Z 36004KT 9999 FEW018 FEW020CB BKN100 20/19 Q1019

Aviation forecast (TAF) for Entebbe International Airport

Retrieved 2019/10/19 06:00 UTC (30 minutes ago):

TAF HUEN 190500Z 1906/2012 16010KT 9999 SCT022 FEW024CB BECMG 1921/1924 32005KT 9000 SCT019 FEW021CB BKN100 TEMPO 2002/2006 VRB10KT 8000 -TSRA BKN017 FEW019CB OVC090